Aérodrome :
LOGIN :

S'inscrire | Disclaimer

   EN    FR    IT 

 










Légende :    VFR   VFR Marginal   IFR   IFR Intensif   IFR Très Intensif
Visi : 
Plafond : 
>= 8 km
>= 3000ft
5 à 8 km
1000 à 3000 ft
1500m à 5 km
500 à 1000 ft
800 à 1500m
200 à 500 ft
< 800m
< 200 ft
Symboles :   Orages  Brouillard  Fortes neiges  Fortes précipitations  Vent > 20 kt
SIGMETs :   Divers  Orages  Givrage  Turbulence  Onde Orograph.  Cendres Volcan.







- Altitude de l'aérodrome : 1345 ft
- Code IATA : FRZ


ETHF - Fritzlar

DERNIER METAR :
  • 201320Z 33011KT 9999 SCT020TCU BKN080 19/13 Q1004 BLU BLU+ TEMPO YLO

METARs EXPIRÉS :
  • 201220Z 34013KT 9999 FEW025 SCT340 20/13 Q1003 BLU+BLU+ TEMPO GRN
  • 201120Z 35009KT 9999 FEW025 SCT080 19/13 Q1004 BLU+BLU+ TEMPO BLU

TAF AMD TAF ETHF
Valide du 20 à 14h jusqu'au 20 à 23h UTC


201406Z 2014/2023 34010KT 9999 NSW FEW030 SCT300
TEMPO 2014/2023 VRB15G30KT 3000 TSRA SCT010 BKN020CB CANCEL 1420
Pas de NOTAMs connus pour ce terrain.
3 SIGMETs publiés pour la FIR Langen (EDGG) :
 
Annulation du SIGMET 2 
EDGG SIGMET 4 VALID 201419/201500 EDZF
EDGG LANGEN FIR CNL SIGMET 2 201350/201500=
Orages noyés dans la masse avec grêle
EDGG SIGMET 3 VALID 201415/201700 EDZF
EDGG LANGEN FIR EMBD TSGR OBS WI N5120 E01030 - N4927 E01057 - N4926 E00845 - N5120 E00846 - N5120 E01030 TOP FL360 MOV SSW 15KT NC=
SIGMET 2  ANNULÉ :
Orages fréquents avec grêle
EDGG SIGMET 2 VALID 201350/201500 EDZF
EDGG LANGEN FIR FRQ TSGR OBS APRX 35NM WID LINE BTN N5119 E00933 - N4949 E01038 TOP FL320 MOV SSW 20KT NC=



MET'MAP, la Météo Aéronautique d'un coup d'oeil ! - Copyright ORBIFLY Décembre 2007 - Disclaimer

ORBIFLY MET'MAP TEAM :

Programmation & Développement : Alexandra Zaïnal
Conception & Développement : Baudouin d'Aumeries
Co-Programmation & Développement : Marc-Olivier Méhu
Soutien technique & logistique : Manuel Goepfert

Contact : metmap@orbifly.com




SOURCES & CREDITS :

   NOAA